sensor_id;sensor_type;location;lat;lon;timestamp;P1;durP1;ratioP1;P2;durP2;ratioP2
62832;SDS011;48891;49.220;6.920;2023-07-13T00:00:52;6.05;;;4.28;;
62832;SDS011;48891;49.220;6.920;2023-07-13T00:03:17;6.15;;;4.10;;
62832;SDS011;48891;49.220;6.920;2023-07-13T00:05:43;7.85;;;4.20;;
62832;SDS011;48891;49.220;6.920;2023-07-13T00:08:08;8.38;;;4.25;;
62832;SDS011;48891;49.220;6.920;2023-07-13T00:10:33;5.82;;;3.97;;
62832;SDS011;48891;49.220;6.920;2023-07-13T00:12:58;6.73;;;4.17;;
62832;SDS011;48891;49.220;6.920;2023-07-13T00:15:24;6.03;;;4.10;;
62832;SDS011;48891;49.220;6.920;2023-07-13T00:17:50;5.43;;;3.88;;
62832;SDS011;48891;49.220;6.920;2023-07-13T00:20:15;5.88;;;4.20;;
62832;SDS011;48891;49.220;6.920;2023-07-13T00:22:41;6.47;;;3.77;;
62832;SDS011;48891;49.220;6.920;2023-07-13T00:25:06;4.85;;;3.65;;
62832;SDS011;48891;49.220;6.920;2023-07-13T00:27:31;6.85;;;4.05;;
62832;SDS011;48891;49.220;6.920;2023-07-13T00:29:56;7.75;;;3.97;;
62832;SDS011;48891;49.220;6.920;2023-07-13T00:32:21;6.22;;;4.05;;
62832;SDS011;48891;49.220;6.920;2023-07-13T00:34:46;5.95;;;3.85;;
62832;SDS011;48891;49.220;6.920;2023-07-13T00:37:11;6.85;;;4.45;;
62832;SDS011;48891;49.220;6.920;2023-07-13T00:39:36;6.28;;;4.20;;
62832;SDS011;48891;49.220;6.920;2023-07-13T00:42:02;8.23;;;4.60;;
62832;SDS011;48891;49.220;6.920;2023-07-13T00:44:28;7.40;;;4.80;;
62832;SDS011;48891;49.220;6.920;2023-07-13T00:46:53;7.05;;;4.30;;
62832;SDS011;48891;49.220;6.920;2023-07-13T00:49:20;8.35;;;4.45;;
62832;SDS011;48891;49.220;6.920;2023-07-13T00:51:47;8.05;;;4.90;;
62832;SDS011;48891;49.220;6.920;2023-07-13T00:54:14;7.00;;;4.60;;
62832;SDS011;48891;49.220;6.920;2023-07-13T00:56:41;6.13;;;4.28;;
62832;SDS011;48891;49.220;6.920;2023-07-13T00:59:08;6.68;;;4.55;;
62832;SDS011;48891;49.220;6.920;2023-07-13T01:01:34;6.47;;;4.35;;
62832;SDS011;48891;49.220;6.920;2023-07-13T01:03:59;7.78;;;4.40;;
62832;SDS011;48891;49.220;6.920;2023-07-13T01:06:25;5.82;;;4.28;;
62832;SDS011;48891;49.220;6.920;2023-07-13T01:08:50;6.27;;;4.47;;
62832;SDS011;48891;49.220;6.920;2023-07-13T01:11:19;6.27;;;4.23;;
62832;SDS011;48891;49.220;6.920;2023-07-13T01:13:44;7.88;;;4.18;;
62832;SDS011;48891;49.220;6.920;2023-07-13T01:16:13;7.03;;;4.28;;
62832;SDS011;48891;49.220;6.920;2023-07-13T01:18:38;6.60;;;3.95;;
62832;SDS011;48891;49.220;6.920;2023-07-13T01:21:04;6.90;;;4.53;;
62832;SDS011;48891;49.220;6.920;2023-07-13T01:23:30;5.20;;;3.50;;
62832;SDS011;48891;49.220;6.920;2023-07-13T01:25:56;8.05;;;4.30;;
62832;SDS011;48891;49.220;6.920;2023-07-13T01:28:22;7.78;;;3.90;;
62832;SDS011;48891;49.220;6.920;2023-07-13T01:30:47;6.97;;;4.15;;
62832;SDS011;48891;49.220;6.920;2023-07-13T01:33:15;5.80;;;3.90;;
62832;SDS011;48891;49.220;6.920;2023-07-13T01:38:05;6.20;;;3.80;;
62832;SDS011;48891;49.220;6.920;2023-07-13T01:40:31;5.68;;;3.50;;
62832;SDS011;48891;49.220;6.920;2023-07-13T01:42:57;6.53;;;4.03;;
62832;SDS011;48891;49.220;6.920;2023-07-13T01:45:22;5.72;;;3.55;;
62832;SDS011;48891;49.220;6.920;2023-07-13T01:47:48;5.60;;;3.65;;
62832;SDS011;48891;49.220;6.920;2023-07-13T01:50:13;7.78;;;3.63;;
62832;SDS011;48891;49.220;6.920;2023-07-13T01:52:38;8.38;;;4.20;;
62832;SDS011;48891;49.220;6.920;2023-07-13T01:55:03;7.10;;;3.80;;
62832;SDS011;48891;49.220;6.920;2023-07-13T01:57:28;6.53;;;4.10;;
62832;SDS011;48891;49.220;6.920;2023-07-13T01:59:54;7.13;;;4.43;;
62832;SDS011;48891;49.220;6.920;2023-07-13T02:02:19;6.17;;;3.70;;
62832;SDS011;48891;49.220;6.920;2023-07-13T02:04:44;7.40;;;3.90;;
62832;SDS011;48891;49.220;6.920;2023-07-13T02:07:09;5.55;;;3.63;;
62832;SDS011;48891;49.220;6.920;2023-07-13T02:09:34;6.43;;;4.05;;
62832;SDS011;48891;49.220;6.920;2023-07-13T02:11:59;5.17;;;3.80;;
62832;SDS011;48891;49.220;6.920;2023-07-13T02:14:24;7.15;;;4.13;;
62832;SDS011;48891;49.220;6.920;2023-07-13T02:16:50;5.82;;;3.50;;
62832;SDS011;48891;49.220;6.920;2023-07-13T02:19:15;6.03;;;3.63;;
62832;SDS011;48891;49.220;6.920;2023-07-13T02:21:40;6.03;;;4.00;;
62832;SDS011;48891;49.220;6.920;2023-07-13T02:24:05;6.20;;;3.70;;
62832;SDS011;48891;49.220;6.920;2023-07-13T02:26:30;6.93;;;3.53;;
62832;SDS011;48891;49.220;6.920;2023-07-13T02:28:55;4.68;;;3.30;;
62832;SDS011;48891;49.220;6.920;2023-07-13T02:31:20;5.32;;;3.65;;
62832;SDS011;48891;49.220;6.920;2023-07-13T02:33:45;5.97;;;3.42;;
62832;SDS011;48891;49.220;6.920;2023-07-13T02:36:11;6.13;;;3.40;;
62832;SDS011;48891;49.220;6.920;2023-07-13T02:38:36;5.28;;;3.35;;
62832;SDS011;48891;49.220;6.920;2023-07-13T02:41:05;5.57;;;3.42;;
62832;SDS011;48891;49.220;6.920;2023-07-13T02:43:30;6.55;;;3.42;;
62832;SDS011;48891;49.220;6.920;2023-07-13T02:45:55;4.40;;;3.22;;
62832;SDS011;48891;49.220;6.920;2023-07-13T02:48:20;5.28;;;3.33;;
62832;SDS011;48891;49.220;6.920;2023-07-13T02:50:45;6.20;;;3.65;;
62832;SDS011;48891;49.220;6.920;2023-07-13T02:53:11;7.93;;;3.53;;
62832;SDS011;48891;49.220;6.920;2023-07-13T02:55:36;5.47;;;3.50;;
62832;SDS011;48891;49.220;6.920;2023-07-13T02:58:01;7.53;;;3.57;;
62832;SDS011;48891;49.220;6.920;2023-07-13T03:00:26;4.45;;;3.30;;
62832;SDS011;48891;49.220;6.920;2023-07-13T03:02:51;6.23;;;3.63;;
62832;SDS011;48891;49.220;6.920;2023-07-13T03:05:17;5.17;;;3.50;;
62832;SDS011;48891;49.220;6.920;2023-07-13T03:07:42;4.75;;;3.42;;
62832;SDS011;48891;49.220;6.920;2023-07-13T03:10:07;6.57;;;3.15;;
62832;SDS011;48891;49.220;6.920;2023-07-13T03:12:32;6.03;;;3.25;;
62832;SDS011;48891;49.220;6.920;2023-07-13T03:14:58;5.32;;;3.58;;
62832;SDS011;48891;49.220;6.920;2023-07-13T03:17:23;5.07;;;3.45;;
62832;SDS011;48891;49.220;6.920;2023-07-13T03:19:48;6.07;;;3.60;;
62832;SDS011;48891;49.220;6.920;2023-07-13T03:22:13;4.63;;;3.03;;
62832;SDS011;48891;49.220;6.920;2023-07-13T03:24:38;5.72;;;3.10;;
62832;SDS011;48891;49.220;6.920;2023-07-13T03:27:04;5.32;;;3.22;;
62832;SDS011;48891;49.220;6.920;2023-07-13T03:29:29;8.27;;;3.63;;
62832;SDS011;48891;49.220;6.920;2023-07-13T03:31:54;4.78;;;3.20;;
62832;SDS011;48891;49.220;6.920;2023-07-13T03:34:19;5.32;;;3.17;;
62832;SDS011;48891;49.220;6.920;2023-07-13T03:36:44;4.88;;;3.00;;
62832;SDS011;48891;49.220;6.920;2023-07-13T03:39:10;5.70;;;3.42;;
62832;SDS011;48891;49.220;6.920;2023-07-13T03:41:35;3.90;;;3.10;;
62832;SDS011;48891;49.220;6.920;2023-07-13T03:44:00;5.95;;;3.47;;
62832;SDS011;48891;49.220;6.920;2023-07-13T03:46:25;6.00;;;3.47;;
62832;SDS011;48891;49.220;6.920;2023-07-13T03:48:50;4.78;;;3.35;;
62832;SDS011;48891;49.220;6.920;2023-07-13T03:51:16;4.43;;;3.33;;
62832;SDS011;48891;49.220;6.920;2023-07-13T03:53:42;5.20;;;3.25;;
62832;SDS011;48891;49.220;6.920;2023-07-13T03:56:08;6.38;;;3.38;;
62832;SDS011;48891;49.220;6.920;2023-07-13T03:58:37;5.72;;;3.53;;
62832;SDS011;48891;49.220;6.920;2023-07-13T04:01:03;4.47;;;2.95;;
62832;SDS011;48891;49.220;6.920;2023-07-13T04:03:29;4.05;;;2.70;;
62832;SDS011;48891;49.220;6.920;2023-07-13T04:05:55;5.00;;;3.33;;
62832;SDS011;48891;49.220;6.920;2023-07-13T04:08:20;4.82;;;2.75;;
62832;SDS011;48891;49.220;6.920;2023-07-13T04:10:45;5.88;;;3.20;;
62832;SDS011;48891;49.220;6.920;2023-07-13T04:13:10;6.73;;;3.20;;
62832;SDS011;48891;49.220;6.920;2023-07-13T04:15:35;6.35;;;3.30;;
62832;SDS011;48891;49.220;6.920;2023-07-13T04:18:01;4.68;;;2.92;;
62832;SDS011;48891;49.220;6.920;2023-07-13T04:20:26;7.13;;;3.73;;
62832;SDS011;48891;49.220;6.920;2023-07-13T04:22:51;5.97;;;3.53;;
62832;SDS011;48891;49.220;6.920;2023-07-13T04:25:16;5.50;;;3.50;;
62832;SDS011;48891;49.220;6.920;2023-07-13T04:27:41;6.47;;;3.47;;
62832;SDS011;48891;49.220;6.920;2023-07-13T04:30:07;5.50;;;3.47;;
62832;SDS011;48891;49.220;6.920;2023-07-13T04:32:32;5.03;;;2.85;;
62832;SDS011;48891;49.220;6.920;2023-07-13T04:34:57;6.60;;;3.23;;
62832;SDS011;48891;49.220;6.920;2023-07-13T04:37:23;4.57;;;3.05;;
62832;SDS011;48891;49.220;6.920;2023-07-13T04:39:48;4.60;;;3.15;;
62832;SDS011;48891;49.220;6.920;2023-07-13T04:42:13;4.82;;;3.10;;
62832;SDS011;48891;49.220;6.920;2023-07-13T04:44:38;5.35;;;3.33;;
62832;SDS011;48891;49.220;6.920;2023-07-13T04:47:03;4.78;;;3.25;;
62832;SDS011;48891;49.220;6.920;2023-07-13T04:49:28;5.22;;;3.25;;
62832;SDS011;48891;49.220;6.920;2023-07-13T04:51:53;4.10;;;3.05;;
62832;SDS011;48891;49.220;6.920;2023-07-13T04:54:18;6.68;;;3.53;;
62832;SDS011;48891;49.220;6.920;2023-07-13T04:56:44;5.18;;;3.30;;
62832;SDS011;48891;49.220;6.920;2023-07-13T04:59:09;5.78;;;2.90;;
62832;SDS011;48891;49.220;6.920;2023-07-13T05:01:34;7.13;;;3.70;;
62832;SDS011;48891;49.220;6.920;2023-07-13T05:03:59;5.25;;;3.22;;
62832;SDS011;48891;49.220;6.920;2023-07-13T05:06:24;6.25;;;2.90;;
62832;SDS011;48891;49.220;6.920;2023-07-13T05:08:49;5.43;;;3.20;;
62832;SDS011;48891;49.220;6.920;2023-07-13T05:11:14;5.55;;;3.47;;
62832;SDS011;48891;49.220;6.920;2023-07-13T05:13:39;5.55;;;3.28;;
62832;SDS011;48891;49.220;6.920;2023-07-13T05:16:05;4.57;;;3.10;;
62832;SDS011;48891;49.220;6.920;2023-07-13T05:18:31;5.57;;;3.20;;
62832;SDS011;48891;49.220;6.920;2023-07-13T05:21:01;5.82;;;3.38;;
62832;SDS011;48891;49.220;6.920;2023-07-13T05:23:26;4.28;;;3.10;;
62832;SDS011;48891;49.220;6.920;2023-07-13T05:25:51;6.87;;;3.10;;
62832;SDS011;48891;49.220;6.920;2023-07-13T05:28:16;4.30;;;2.92;;
62832;SDS011;48891;49.220;6.920;2023-07-13T05:30:45;4.32;;;3.03;;
62832;SDS011;48891;49.220;6.920;2023-07-13T05:33:11;5.13;;;3.13;;
62832;SDS011;48891;49.220;6.920;2023-07-13T05:35:36;4.78;;;2.90;;
62832;SDS011;48891;49.220;6.920;2023-07-13T05:38:01;5.97;;;3.33;;
62832;SDS011;48891;49.220;6.920;2023-07-13T05:40:26;6.03;;;3.38;;
62832;SDS011;48891;49.220;6.920;2023-07-13T05:42:51;4.90;;;3.08;;
62832;SDS011;48891;49.220;6.920;2023-07-13T05:45:16;4.55;;;3.00;;
62832;SDS011;48891;49.220;6.920;2023-07-13T05:47:41;5.28;;;3.30;;
62832;SDS011;48891;49.220;6.920;2023-07-13T05:50:07;5.22;;;2.88;;
62832;SDS011;48891;49.220;6.920;2023-07-13T05:52:32;4.97;;;2.85;;
62832;SDS011;48891;49.220;6.920;2023-07-13T05:54:57;4.47;;;3.00;;
62832;SDS011;48891;49.220;6.920;2023-07-13T05:57:22;8.10;;;2.90;;
62832;SDS011;48891;49.220;6.920;2023-07-13T05:59:47;5.85;;;3.33;;
62832;SDS011;48891;49.220;6.920;2023-07-13T06:02:13;5.83;;;3.43;;
62832;SDS011;48891;49.220;6.920;2023-07-13T06:04:39;6.15;;;3.03;;
62832;SDS011;48891;49.220;6.920;2023-07-13T06:07:04;5.20;;;3.20;;
62832;SDS011;48891;49.220;6.920;2023-07-13T06:09:29;7.25;;;3.60;;
62832;SDS011;48891;49.220;6.920;2023-07-13T06:11:54;5.50;;;3.22;;
62832;SDS011;48891;49.220;6.920;2023-07-13T06:14:19;5.38;;;3.00;;
62832;SDS011;48891;49.220;6.920;2023-07-13T06:16:44;5.70;;;2.72;;
62832;SDS011;48891;49.220;6.920;2023-07-13T06:19:09;5.07;;;3.25;;
62832;SDS011;48891;49.220;6.920;2023-07-13T06:21:35;7.47;;;2.90;;
62832;SDS011;48891;49.220;6.920;2023-07-13T06:24:00;7.53;;;3.40;;
62832;SDS011;48891;49.220;6.920;2023-07-13T06:26:25;4.80;;;2.90;;
62832;SDS011;48891;49.220;6.920;2023-07-13T06:28:50;5.25;;;3.00;;
62832;SDS011;48891;49.220;6.920;2023-07-13T06:31:15;4.93;;;2.95;;
62832;SDS011;48891;49.220;6.920;2023-07-13T06:33:40;4.13;;;2.88;;
62832;SDS011;48891;49.220;6.920;2023-07-13T06:36:06;8.82;;;3.33;;
62832;SDS011;48891;49.220;6.920;2023-07-13T06:38:31;6.18;;;3.53;;
62832;SDS011;48891;49.220;6.920;2023-07-13T06:40:57;6.97;;;2.80;;
62832;SDS011;48891;49.220;6.920;2023-07-13T06:43:22;3.85;;;2.53;;
62832;SDS011;48891;49.220;6.920;2023-07-13T06:45:48;5.78;;;3.28;;
62832;SDS011;48891;49.220;6.920;2023-07-13T06:48:13;7.78;;;2.88;;
62832;SDS011;48891;49.220;6.920;2023-07-13T06:50:38;6.85;;;3.00;;
62832;SDS011;48891;49.220;6.920;2023-07-13T06:53:03;6.43;;;2.83;;
62832;SDS011;48891;49.220;6.920;2023-07-13T06:55:29;6.88;;;3.03;;
62832;SDS011;48891;49.220;6.920;2023-07-13T06:57:54;4.72;;;2.72;;
62832;SDS011;48891;49.220;6.920;2023-07-13T07:00:19;3.67;;;2.40;;
62832;SDS011;48891;49.220;6.920;2023-07-13T07:02:44;5.13;;;2.70;;
62832;SDS011;48891;49.220;6.920;2023-07-13T07:05:09;7.47;;;3.10;;
62832;SDS011;48891;49.220;6.920;2023-07-13T07:07:34;5.87;;;2.73;;
62832;SDS011;48891;49.220;6.920;2023-07-13T07:09:59;5.47;;;2.47;;
62832;SDS011;48891;49.220;6.920;2023-07-13T07:12:24;5.35;;;2.60;;
62832;SDS011;48891;49.220;6.920;2023-07-13T07:14:50;7.07;;;2.70;;
62832;SDS011;48891;49.220;6.920;2023-07-13T07:17:15;4.30;;;2.40;;
62832;SDS011;48891;49.220;6.920;2023-07-13T07:19:40;4.38;;;2.70;;
62832;SDS011;48891;49.220;6.920;2023-07-13T07:22:05;7.20;;;2.58;;
62832;SDS011;48891;49.220;6.920;2023-07-13T07:24:30;5.32;;;2.40;;
62832;SDS011;48891;49.220;6.920;2023-07-13T07:26:55;6.43;;;2.63;;
62832;SDS011;48891;49.220;6.920;2023-07-13T07:29:21;5.30;;;2.55;;
62832;SDS011;48891;49.220;6.920;2023-07-13T07:31:46;5.90;;;2.67;;
62832;SDS011;48891;49.220;6.920;2023-07-13T07:34:11;5.55;;;2.45;;
62832;SDS011;48891;49.220;6.920;2023-07-13T07:36:36;5.28;;;2.40;;
62832;SDS011;48891;49.220;6.920;2023-07-13T07:39:01;4.85;;;2.70;;
62832;SDS011;48891;49.220;6.920;2023-07-13T07:41:26;4.10;;;2.25;;
62832;SDS011;48891;49.220;6.920;2023-07-13T07:43:51;4.25;;;2.20;;
62832;SDS011;48891;49.220;6.920;2023-07-13T07:46:16;5.07;;;2.10;;
62832;SDS011;48891;49.220;6.920;2023-07-13T07:48:42;9.23;;;2.70;;
62832;SDS011;48891;49.220;6.920;2023-07-13T07:51:07;6.22;;;2.30;;
62832;SDS011;48891;49.220;6.920;2023-07-13T07:53:32;6.97;;;2.47;;
62832;SDS011;48891;49.220;6.920;2023-07-13T07:55:57;5.00;;;2.38;;
62832;SDS011;48891;49.220;6.920;2023-07-13T07:58:22;5.63;;;2.00;;
62832;SDS011;48891;49.220;6.920;2023-07-13T08:00:47;5.53;;;2.40;;
62832;SDS011;48891;49.220;6.920;2023-07-13T08:03:12;5.97;;;2.30;;
62832;SDS011;48891;49.220;6.920;2023-07-13T08:05:37;5.65;;;2.50;;
62832;SDS011;48891;49.220;6.920;2023-07-13T08:08:03;5.28;;;2.13;;
62832;SDS011;48891;49.220;6.920;2023-07-13T08:10:28;3.10;;;1.90;;
62832;SDS011;48891;49.220;6.920;2023-07-13T08:12:54;3.90;;;1.90;;
62832;SDS011;48891;49.220;6.920;2023-07-13T08:15:19;4.20;;;1.80;;
62832;SDS011;48891;49.220;6.920;2023-07-13T08:17:44;4.22;;;1.95;;
62832;SDS011;48891;49.220;6.920;2023-07-13T08:20:09;4.03;;;2.10;;
62832;SDS011;48891;49.220;6.920;2023-07-13T08:22:35;5.07;;;1.90;;
62832;SDS011;48891;49.220;6.920;2023-07-13T08:25:00;4.10;;;2.00;;
62832;SDS011;48891;49.220;6.920;2023-07-13T08:27:25;2.50;;;1.63;;
62832;SDS011;48891;49.220;6.920;2023-07-13T08:29:51;4.25;;;1.90;;
62832;SDS011;48891;49.220;6.920;2023-07-13T08:32:17;4.60;;;1.77;;
62832;SDS011;48891;49.220;6.920;2023-07-13T08:34:42;5.50;;;2.17;;
62832;SDS011;48891;49.220;6.920;2023-07-13T08:37:07;4.17;;;1.70;;
62832;SDS011;48891;49.220;6.920;2023-07-13T08:39:33;4.22;;;1.70;;
62832;SDS011;48891;49.220;6.920;2023-07-13T08:42:00;3.70;;;1.90;;
62832;SDS011;48891;49.220;6.920;2023-07-13T08:44:37;4.03;;;1.90;;
62832;SDS011;48891;49.220;6.920;2023-07-13T08:47:04;3.88;;;1.80;;
62832;SDS011;48891;49.220;6.920;2023-07-13T08:49:30;3.30;;;1.67;;
62832;SDS011;48891;49.220;6.920;2023-07-13T08:52:06;4.10;;;1.60;;
62832;SDS011;48891;49.220;6.920;2023-07-13T08:54:38;2.70;;;1.70;;
62832;SDS011;48891;49.220;6.920;2023-07-13T08:57:13;2.55;;;1.60;;
62832;SDS011;48891;49.220;6.920;2023-07-13T08:59:38;3.20;;;1.55;;
62832;SDS011;48891;49.220;6.920;2023-07-13T09:08:02;6.13;;;1.90;;
62832;SDS011;48891;49.220;6.920;2023-07-13T09:10:10;5.03;;;1.90;;
62832;SDS011;48891;49.220;6.920;2023-07-13T09:15:11;2.70;;;1.65;;
62832;SDS011;48891;49.220;6.920;2023-07-13T09:17:45;6.72;;;1.90;;
62832;SDS011;48891;49.220;6.920;2023-07-13T09:25:06;4.75;;;2.00;;
62832;SDS011;48891;49.220;6.920;2023-07-13T09:27:38;4.90;;;1.80;;
62832;SDS011;48891;49.220;6.920;2023-07-13T09:30:16;3.10;;;1.48;;
62832;SDS011;48891;49.220;6.920;2023-07-13T09:32:45;4.55;;;1.90;;
62832;SDS011;48891;49.220;6.920;2023-07-13T09:35:12;2.80;;;1.80;;
62832;SDS011;48891;49.220;6.920;2023-07-13T09:37:40;4.20;;;1.90;;
62832;SDS011;48891;49.220;6.920;2023-07-13T09:40:05;4.50;;;1.77;;
62832;SDS011;48891;49.220;6.920;2023-07-13T09:42:35;4.85;;;1.80;;
62832;SDS011;48891;49.220;6.920;2023-07-13T09:45:00;4.22;;;2.20;;
62832;SDS011;48891;49.220;6.920;2023-07-13T09:47:27;5.30;;;1.98;;
62832;SDS011;48891;49.220;6.920;2023-07-13T09:49:56;2.80;;;1.65;;
62832;SDS011;48891;49.220;6.920;2023-07-13T09:52:21;3.20;;;1.60;;
62832;SDS011;48891;49.220;6.920;2023-07-13T09:54:48;5.00;;;1.65;;
62832;SDS011;48891;49.220;6.920;2023-07-13T09:57:14;1.88;;;1.52;;
62832;SDS011;48891;49.220;6.920;2023-07-13T09:59:41;4.40;;;1.80;;
62832;SDS011;48891;49.220;6.920;2023-07-13T10:04:57;4.75;;;1.67;;
62832;SDS011;48891;49.220;6.920;2023-07-13T10:07:23;3.08;;;1.75;;
62832;SDS011;48891;49.220;6.920;2023-07-13T10:09:51;2.13;;;1.70;;
62832;SDS011;48891;49.220;6.920;2023-07-13T10:12:16;2.40;;;1.70;;
62832;SDS011;48891;49.220;6.920;2023-07-13T10:14:42;4.17;;;1.60;;
62832;SDS011;48891;49.220;6.920;2023-07-13T10:17:12;3.15;;;1.60;;
62832;SDS011;48891;49.220;6.920;2023-07-13T10:19:38;5.07;;;1.83;;
62832;SDS011;48891;49.220;6.920;2023-07-13T10:24:47;2.40;;;1.73;;
62832;SDS011;48891;49.220;6.920;2023-07-13T10:27:13;5.55;;;1.90;;
62832;SDS011;48891;49.220;6.920;2023-07-13T10:29:42;2.65;;;1.55;;
62832;SDS011;48891;49.220;6.920;2023-07-13T10:32:09;3.95;;;1.63;;
62832;SDS011;48891;49.220;6.920;2023-07-13T10:34:35;3.13;;;1.80;;
62832;SDS011;48891;49.220;6.920;2023-07-13T10:37:00;4.03;;;1.50;;
62832;SDS011;48891;49.220;6.920;2023-07-13T10:39:27;2.40;;;1.50;;
62832;SDS011;48891;49.220;6.920;2023-07-13T10:41:53;2.42;;;1.52;;
62832;SDS011;48891;49.220;6.920;2023-07-13T10:44:36;3.95;;;1.60;;
62832;SDS011;48891;49.220;6.920;2023-07-13T10:47:03;3.72;;;1.80;;
62832;SDS011;48891;49.220;6.920;2023-07-13T10:49:30;3.63;;;1.83;;
62832;SDS011;48891;49.220;6.920;2023-07-13T10:51:56;2.92;;;1.70;;
62832;SDS011;48891;49.220;6.920;2023-07-13T10:54:26;2.78;;;1.67;;
62832;SDS011;48891;49.220;6.920;2023-07-13T10:59:35;4.25;;;1.80;;
62832;SDS011;48891;49.220;6.920;2023-07-13T11:04:29;6.15;;;1.73;;
62832;SDS011;48891;49.220;6.920;2023-07-13T11:06:58;2.38;;;1.77;;
62832;SDS011;48891;49.220;6.920;2023-07-13T11:11:56;2.40;;;1.67;;
62832;SDS011;48891;49.220;6.920;2023-07-13T11:14:34;4.50;;;1.70;;
62832;SDS011;48891;49.220;6.920;2023-07-13T11:16:59;3.90;;;1.77;;
62832;SDS011;48891;49.220;6.920;2023-07-13T11:19:44;4.63;;;1.88;;
62832;SDS011;48891;49.220;6.920;2023-07-13T11:22:16;3.47;;;1.77;;
62832;SDS011;48891;49.220;6.920;2023-07-13T11:27:21;2.58;;;1.60;;
62832;SDS011;48891;49.220;6.920;2023-07-13T11:29:48;1.60;;;1.50;;
62832;SDS011;48891;49.220;6.920;2023-07-13T11:32:29;3.35;;;1.83;;
62832;SDS011;48891;49.220;6.920;2023-07-13T11:34:55;3.30;;;1.63;;
62832;SDS011;48891;49.220;6.920;2023-07-13T11:37:20;3.13;;;1.80;;
62832;SDS011;48891;49.220;6.920;2023-07-13T11:39:46;4.25;;;1.60;;
62832;SDS011;48891;49.220;6.920;2023-07-13T11:42:13;3.83;;;1.73;;
62832;SDS011;48891;49.220;6.920;2023-07-13T11:44:44;4.83;;;1.70;;
62832;SDS011;48891;49.220;6.920;2023-07-13T11:47:11;4.88;;;1.60;;
62832;SDS011;48891;49.220;6.920;2023-07-13T11:49:43;4.43;;;1.70;;
62832;SDS011;48891;49.220;6.920;2023-07-13T11:52:15;3.10;;;1.65;;
62832;SDS011;48891;49.220;6.920;2023-07-13T11:54:51;4.05;;;1.75;;
62832;SDS011;48891;49.220;6.920;2023-07-13T11:59:42;3.28;;;1.90;;
62832;SDS011;48891;49.220;6.920;2023-07-13T12:02:08;3.80;;;1.63;;
62832;SDS011;48891;49.220;6.920;2023-07-13T12:04:36;2.25;;;1.50;;
62832;SDS011;48891;49.220;6.920;2023-07-13T12:07:06;4.25;;;1.63;;
62832;SDS011;48891;49.220;6.920;2023-07-13T12:09:33;3.00;;;1.70;;
62832;SDS011;48891;49.220;6.920;2023-07-13T12:11:58;3.50;;;1.58;;
62832;SDS011;48891;49.220;6.920;2023-07-13T12:14:23;2.60;;;1.77;;
62832;SDS011;48891;49.220;6.920;2023-07-13T12:16:48;4.82;;;1.95;;
62832;SDS011;48891;49.220;6.920;2023-07-13T12:19:18;3.33;;;1.60;;
62832;SDS011;48891;49.220;6.920;2023-07-13T12:21:44;2.70;;;1.60;;
62832;SDS011;48891;49.220;6.920;2023-07-13T12:24:13;3.83;;;1.55;;
62832;SDS011;48891;49.220;6.920;2023-07-13T12:26:39;4.65;;;1.75;;
62832;SDS011;48891;49.220;6.920;2023-07-13T12:29:05;4.32;;;1.67;;
62832;SDS011;48891;49.220;6.920;2023-07-13T12:31:33;3.35;;;1.63;;
62832;SDS011;48891;49.220;6.920;2023-07-13T12:36:34;2.05;;;1.48;;
62832;SDS011;48891;49.220;6.920;2023-07-13T12:39:00;4.40;;;2.03;;
62832;SDS011;48891;49.220;6.920;2023-07-13T12:41:27;2.50;;;1.60;;
62832;SDS011;48891;49.220;6.920;2023-07-13T12:43:53;2.67;;;1.90;;
62832;SDS011;48891;49.220;6.920;2023-07-13T12:46:19;2.60;;;1.80;;
62832;SDS011;48891;49.220;6.920;2023-07-13T12:48:47;4.38;;;1.67;;
62832;SDS011;48891;49.220;6.920;2023-07-13T12:51:13;3.60;;;1.75;;
62832;SDS011;48891;49.220;6.920;2023-07-13T12:53:42;6.00;;;2.15;;
62832;SDS011;48891;49.220;6.920;2023-07-13T12:56:08;2.55;;;1.55;;
62832;SDS011;48891;49.220;6.920;2023-07-13T12:58:39;3.08;;;1.63;;
62832;SDS011;48891;49.220;6.920;2023-07-13T13:01:05;4.72;;;2.08;;
62832;SDS011;48891;49.220;6.920;2023-07-13T13:05:59;5.05;;;1.90;;
62832;SDS011;48891;49.220;6.920;2023-07-13T13:08:24;11.18;;;2.20;;
62832;SDS011;48891;49.220;6.920;2023-07-13T13:10:49;22.30;;;7.35;;
62832;SDS011;48891;49.220;6.920;2023-07-13T13:13:14;13.80;;;4.60;;
62832;SDS011;48891;49.220;6.920;2023-07-13T13:15:40;11.38;;;4.22;;
62832;SDS011;48891;49.220;6.920;2023-07-13T13:18:10;8.77;;;3.00;;
62832;SDS011;48891;49.220;6.920;2023-07-13T13:20:39;7.93;;;2.90;;
62832;SDS011;48891;49.220;6.920;2023-07-13T13:23:04;11.13;;;3.60;;
62832;SDS011;48891;49.220;6.920;2023-07-13T13:25:29;8.25;;;3.42;;
62832;SDS011;48891;49.220;6.920;2023-07-13T13:27:54;20.23;;;6.93;;
62832;SDS011;48891;49.220;6.920;2023-07-13T13:30:20;22.70;;;9.55;;
62832;SDS011;48891;49.220;6.920;2023-07-13T13:32:46;19.63;;;8.02;;
62832;SDS011;48891;49.220;6.920;2023-07-13T13:35:15;21.63;;;7.25;;
62832;SDS011;48891;49.220;6.920;2023-07-13T13:37:40;17.45;;;6.22;;
62832;SDS011;48891;49.220;6.920;2023-07-13T13:40:13;29.60;;;11.70;;
62832;SDS011;48891;49.220;6.920;2023-07-13T13:42:38;25.52;;;9.95;;
62832;SDS011;48891;49.220;6.920;2023-07-13T13:45:04;43.67;;;15.32;;
62832;SDS011;48891;49.220;6.920;2023-07-13T13:47:30;30.13;;;11.18;;
62832;SDS011;48891;49.220;6.920;2023-07-13T13:49:55;24.45;;;9.93;;
62832;SDS011;48891;49.220;6.920;2023-07-13T13:52:20;24.90;;;8.63;;
62832;SDS011;48891;49.220;6.920;2023-07-13T13:54:46;20.27;;;8.50;;
62832;SDS011;48891;49.220;6.920;2023-07-13T13:57:11;16.67;;;6.97;;
62832;SDS011;48891;49.220;6.920;2023-07-13T13:59:36;15.05;;;6.20;;
62832;SDS011;48891;49.220;6.920;2023-07-13T14:02:01;13.82;;;5.90;;
62832;SDS011;48891;49.220;6.920;2023-07-13T14:04:26;13.10;;;5.63;;
62832;SDS011;48891;49.220;6.920;2023-07-13T14:06:51;14.43;;;5.70;;
62832;SDS011;48891;49.220;6.920;2023-07-13T14:09:17;11.43;;;4.53;;
62832;SDS011;48891;49.220;6.920;2023-07-13T14:11:43;13.85;;;4.40;;
62832;SDS011;48891;49.220;6.920;2023-07-13T14:14:12;11.52;;;3.72;;
62832;SDS011;48891;49.220;6.920;2023-07-13T14:16:39;8.95;;;3.40;;
62832;SDS011;48891;49.220;6.920;2023-07-13T14:19:05;7.47;;;3.35;;
62832;SDS011;48891;49.220;6.920;2023-07-13T14:21:30;8.35;;;3.33;;
62832;SDS011;48891;49.220;6.920;2023-07-13T14:23:55;8.52;;;2.95;;
62832;SDS011;48891;49.220;6.920;2023-07-13T14:26:21;6.63;;;3.17;;
62832;SDS011;48891;49.220;6.920;2023-07-13T14:28:47;9.15;;;3.63;;
62832;SDS011;48891;49.220;6.920;2023-07-13T14:31:13;6.68;;;2.97;;
62832;SDS011;48891;49.220;6.920;2023-07-13T14:33:38;8.70;;;2.88;;
62832;SDS011;48891;49.220;6.920;2023-07-13T14:36:16;5.83;;;2.43;;
62832;SDS011;48891;49.220;6.920;2023-07-13T14:38:45;5.63;;;2.80;;
62832;SDS011;48891;49.220;6.920;2023-07-13T14:41:10;5.25;;;2.63;;
62832;SDS011;48891;49.220;6.920;2023-07-13T14:43:35;5.90;;;2.50;;
62832;SDS011;48891;49.220;6.920;2023-07-13T14:46:00;5.07;;;2.40;;
62832;SDS011;48891;49.220;6.920;2023-07-13T14:48:26;5.25;;;2.40;;
62832;SDS011;48891;49.220;6.920;2023-07-13T14:50:54;5.38;;;2.35;;
62832;SDS011;48891;49.220;6.920;2023-07-13T14:53:20;5.28;;;2.30;;
62832;SDS011;48891;49.220;6.920;2023-07-13T14:55:45;5.97;;;2.30;;
62832;SDS011;48891;49.220;6.920;2023-07-13T14:58:10;4.43;;;2.17;;
62832;SDS011;48891;49.220;6.920;2023-07-13T15:00:35;7.20;;;2.30;;
62832;SDS011;48891;49.220;6.920;2023-07-13T15:03:00;3.90;;;2.10;;
62832;SDS011;48891;49.220;6.920;2023-07-13T15:05:30;3.00;;;1.80;;
62832;SDS011;48891;49.220;6.920;2023-07-13T15:07:59;3.40;;;2.00;;
62832;SDS011;48891;49.220;6.920;2023-07-13T15:10:26;2.72;;;1.80;;
62832;SDS011;48891;49.220;6.920;2023-07-13T15:12:51;4.97;;;2.03;;
62832;SDS011;48891;49.220;6.920;2023-07-13T15:15:17;5.13;;;1.90;;
62832;SDS011;48891;49.220;6.920;2023-07-13T15:17:45;4.47;;;1.83;;